createdAt,value
2019-04-22T00:00:04.742Z,17
2019-04-22T00:01:05.002Z,17
2019-04-22T00:02:05.977Z,17
2019-04-22T00:03:06.588Z,17
2019-04-22T00:04:10.038Z,17
2019-04-22T00:05:14.381Z,17
2019-04-22T00:06:21.105Z,17
2019-04-22T00:07:22.959Z,17
2019-04-22T00:08:29.611Z,16
2019-04-22T00:10:21.101Z,17
2019-04-22T00:11:29.046Z,17
2019-04-22T00:12:20.870Z,17
2019-04-22T00:14:26.423Z,17
2019-04-22T00:15:15.417Z,19
2019-04-22T00:16:34.314Z,19
2019-04-22T00:17:31.754Z,19
2019-04-22T00:18:30.479Z,19
2019-04-22T00:19:33.548Z,19
2019-04-22T00:20:33.634Z,16
2019-04-22T00:21:35.226Z,18
2019-04-22T00:22:22.306Z,18
2019-04-22T00:23:24.595Z,18
2019-04-22T00:24:27.338Z,18
2019-04-22T00:25:24.519Z,18
2019-04-22T00:26:29.011Z,17
2019-04-22T00:27:29.456Z,15
2019-04-22T00:28:32.357Z,15
2019-04-22T00:30:18.182Z,15
2019-04-22T00:31:26.720Z,15
2019-04-22T00:32:24.278Z,17
2019-04-22T00:33:26.549Z,17
2019-04-22T00:34:22.522Z,17
2019-04-22T00:35:26.910Z,17
2019-04-22T00:36:28.568Z,17
2019-04-22T00:37:28.328Z,17
2019-04-22T00:38:31.794Z,16
2019-04-22T00:40:30.193Z,17
2019-04-22T00:41:34.181Z,17
2019-04-22T00:42:28.407Z,17
2019-04-22T00:43:28.876Z,17
2019-04-22T00:44:33.599Z,17
2019-04-22T00:45:26.733Z,18
2019-04-22T00:46:36.131Z,18
2019-04-22T00:47:29.134Z,18
2019-04-22T00:48:27.856Z,18
2019-04-22T00:50:06.269Z,18
2019-04-22T00:50:30.222Z,17
2019-04-22T00:51:31.529Z,16
2019-04-22T00:52:28.160Z,16
2019-04-22T00:53:33.376Z,16
2019-04-22T00:54:32.902Z,16
2019-04-22T00:55:21.910Z,16
2019-04-22T00:56:22.118Z,17
2019-04-22T00:57:28.259Z,14
2019-04-22T00:58:24.148Z,14
2019-04-22T01:00:32.109Z,14
2019-04-22T01:01:19.185Z,14
2019-04-22T01:02:27.730Z,16
2019-04-22T01:03:34.165Z,17
2019-04-22T01:04:34.666Z,17
2019-04-22T01:05:32.459Z,17
2019-04-22T01:06:25.742Z,17
2019-04-22T01:07:26.823Z,17
2019-04-22T01:08:34.625Z,15
2019-04-22T01:09:16.900Z,17
2019-04-22T01:10:32.428Z,17
2019-04-22T01:11:29.554Z,17
2019-04-22T01:12:26.346Z,17
2019-04-22T01:13:27.645Z,17
2019-04-22T01:14:28.054Z,16
2019-04-22T01:15:31.947Z,17
2019-04-22T01:16:29.785Z,17
2019-04-22T01:17:29.344Z,17
2019-04-22T01:18:32.736Z,17
2019-04-22T01:19:34.805Z,17
2019-04-22T01:20:54.634Z,15
2019-04-22T01:21:28.846Z,17
2019-04-22T01:23:23.698Z,17
2019-04-22T01:24:22.208Z,17
2019-04-22T01:26:22.919Z,17
2019-04-22T01:27:20.609Z,20
2019-04-22T01:28:21.758Z,20
2019-04-22T01:29:14.955Z,20
2019-04-22T01:30:14.967Z,20
2019-04-22T01:31:09.602Z,20
2019-04-22T01:32:05.911Z,15
2019-04-22T01:33:09.447Z,18
2019-04-22T01:34:16.188Z,18
2019-04-22T01:35:12.952Z,18
2019-04-22T01:37:20.279Z,18
2019-04-22T01:38:13.205Z,18
2019-04-22T01:39:31.823Z,18
2019-04-22T01:40:33.408Z,18
2019-04-22T01:41:35.846Z,18
2019-04-22T01:42:28.155Z,18
2019-04-22T01:43:35.396Z,18
2019-04-22T01:46:32.360Z,17
2019-04-22T01:48:35.789Z,17
2019-04-22T01:49:30.223Z,17
2019-04-22T01:50:27.755Z,16
2019-04-22T01:51:40.593Z,16
2019-04-22T01:53:28.664Z,16
2019-04-22T01:56:27.566Z,17
2019-04-22T01:57:22.836Z,19
2019-04-22T01:58:23.664Z,19
2019-04-22T01:59:22.466Z,19
2019-04-22T02:00:27.249Z,19
2019-04-22T02:01:24.627Z,19
2019-04-22T02:02:31.060Z,16
2019-04-22T02:03:33.311Z,18
2019-04-22T02:04:35.418Z,18
2019-04-22T02:05:23.912Z,18
2019-04-22T02:06:33.224Z,18
2019-04-22T02:08:25.523Z,15
2019-04-22T02:09:31.236Z,17
2019-04-22T02:10:34.534Z,17
2019-04-22T02:11:33.866Z,17
2019-04-22T02:12:25.798Z,17
2019-04-22T02:13:29.007Z,17
2019-04-22T02:16:27.842Z,16
2019-04-22T02:17:31.568Z,16
2019-04-22T02:18:32.951Z,16
2019-04-22T02:19:30.456Z,16
2019-04-22T02:20:23.353Z,16
2019-04-22T02:21:31.917Z,19
2019-04-22T02:22:42.872Z,19
2019-04-22T02:23:40.910Z,19
2019-04-22T02:24:33.323Z,19
2019-04-22T02:25:32.280Z,19
2019-04-22T02:26:31.383Z,15
2019-04-22T02:27:35.471Z,18
2019-04-22T02:28:36.705Z,18
2019-04-22T02:29:30.056Z,18
2019-04-22T02:30:37.027Z,18
2019-04-22T02:31:36.065Z,18
2019-04-22T02:33:41.009Z,17
2019-04-22T02:34:32.496Z,17
2019-04-22T02:35:31.221Z,17
2019-04-22T02:36:36.476Z,17
2019-04-22T02:37:32.107Z,17
2019-04-22T02:38:57.446Z,19
2019-04-22T02:42:24.247Z,19
2019-04-22T02:45:39.401Z,19
2019-04-22T02:46:46.178Z,19
2019-04-22T02:47:27.646Z,19
2019-04-22T02:48:34.079Z,19
2019-04-22T02:49:31.421Z,19
2019-04-22T02:50:28.555Z,18
2019-04-22T02:51:27.837Z,18
2019-04-22T02:52:26.338Z,18
2019-04-22T02:56:31.879Z,20
2019-04-22T02:57:37.057Z,20
2019-04-22T02:58:46.820Z,20
2019-04-22T02:59:34.974Z,20
2019-04-22T03:00:51.161Z,20
2019-04-22T03:03:31.380Z,18
2019-04-22T03:04:20.471Z,18
2019-04-22T03:05:40.902Z,18
2019-04-22T03:07:34.359Z,18
2019-04-22T03:09:31.690Z,18
2019-04-22T03:10:47.344Z,18
2019-04-22T03:11:34.143Z,18
2019-04-22T03:12:28.806Z,18
2019-04-22T03:14:22.396Z,19
2019-04-22T03:15:38.077Z,18
2019-04-22T03:17:25.514Z,18
2019-04-22T03:18:44.105Z,18
2019-04-22T03:19:47.766Z,18
2019-04-22T03:20:14.515Z,19
2019-04-22T03:21:33.761Z,19
2019-04-22T03:22:21.091Z,19
2019-04-22T03:26:27.388Z,20
2019-04-22T03:27:29.721Z,18
2019-04-22T03:28:43.574Z,18
2019-04-22T03:33:36.232Z,18
2019-04-22T03:35:50.086Z,18
2019-04-22T03:37:03.852Z,18
2019-04-22T03:37:45.601Z,18
2019-04-22T03:38:31.226Z,19
2019-04-22T03:40:44.726Z,18
2019-04-22T03:41:48.178Z,18
2019-04-22T03:42:32.585Z,18
2019-04-22T03:43:48.611Z,18
2019-04-22T03:45:28.459Z,18
2019-04-22T03:47:38.663Z,18
2019-04-22T03:48:36.367Z,18
2019-04-22T03:49:30.761Z,18
2019-04-22T03:50:28.163Z,19
2019-04-22T03:51:47.869Z,22
2019-04-22T03:52:15.786Z,22
2019-04-22T03:53:20.988Z,22
2019-04-22T03:54:39.980Z,22
2019-04-22T03:55:37.400Z,22
2019-04-22T03:57:10.105Z,20
2019-04-22T03:57:50.430Z,21
2019-04-22T03:58:45.491Z,21
2019-04-22T04:00:43.708Z,21
2019-04-22T04:02:38.828Z,16
2019-04-22T04:03:35.580Z,19
2019-04-22T04:04:43.220Z,19
2019-04-22T04:06:32.787Z,19
2019-04-22T04:08:35.702Z,20
2019-04-22T04:09:25.040Z,20
2019-04-22T04:10:35.346Z,20
2019-04-22T04:13:34.033Z,20
2019-04-22T04:14:37.320Z,20
2019-04-22T04:15:32.904Z,18
2019-04-22T04:16:40.996Z,18
2019-04-22T04:18:41.137Z,18
2019-04-22T04:19:54.163Z,18
2019-04-22T04:20:32.207Z,21
2019-04-22T04:21:37.109Z,21
2019-04-22T04:22:56.739Z,21
2019-04-22T04:23:50.560Z,21
2019-04-22T04:24:44.813Z,21
2019-04-22T04:26:45.555Z,20
2019-04-22T04:29:45.521Z,21
2019-04-22T04:30:31.502Z,21
2019-04-22T04:32:51.378Z,23
2019-04-22T04:33:38.163Z,23
2019-04-22T04:34:56.266Z,23
2019-04-22T04:35:32.384Z,23
2019-04-22T04:37:44.997Z,23
2019-04-22T04:38:43.495Z,22
2019-04-22T04:39:34.574Z,23
2019-04-22T04:40:31.523Z,23
2019-04-22T04:42:46.041Z,23
2019-04-22T04:46:24.294Z,23
2019-04-22T04:49:23.994Z,23
2019-04-22T04:50:39.956Z,23
2019-04-22T04:51:37.705Z,22
2019-04-22T04:53:28.811Z,22
2019-04-22T04:54:41.487Z,22
2019-04-22T04:55:34.990Z,22
2019-04-22T04:56:36.390Z,21
2019-04-22T04:57:43.593Z,25
2019-04-22T04:58:46.584Z,25
2019-04-22T04:59:57.695Z,25
2019-04-22T05:00:48.122Z,25
2019-04-22T05:05:35.310Z,25
2019-04-22T05:06:42.957Z,25
2019-04-22T05:08:52.519Z,24
2019-04-22T05:12:45.024Z,25
2019-04-22T05:13:39.408Z,25
2019-04-22T05:14:24.549Z,23
2019-04-22T05:15:38.001Z,25
2019-04-22T05:16:25.466Z,25
2019-04-22T05:17:41.260Z,25
2019-04-22T05:19:22.506Z,25
2019-04-22T05:20:49.235Z,26
2019-04-22T05:23:25.512Z,25
2019-04-22T05:24:29.728Z,25
2019-04-22T05:25:28.492Z,25
2019-04-22T05:26:32.524Z,25
2019-04-22T05:27:34.119Z,26
2019-04-22T05:28:31.547Z,26
2019-04-22T05:29:32.691Z,26
2019-04-22T05:30:23.577Z,26
2019-04-22T05:31:35.527Z,26
2019-04-22T05:32:31.312Z,25
2019-04-22T05:33:32.047Z,26
2019-04-22T05:34:30.197Z,26
2019-04-22T05:35:26.255Z,26
2019-04-22T05:36:30.097Z,26
2019-04-22T05:37:27.677Z,26
2019-04-22T05:38:33.125Z,25
2019-04-22T05:39:17.256Z,28
2019-04-22T05:40:28.232Z,28
2019-04-22T05:42:20.279Z,28
2019-04-22T05:43:27.315Z,28
2019-04-22T05:44:29.408Z,28
2019-04-22T05:45:20.580Z,27
2019-04-22T05:47:25.689Z,27
2019-04-22T05:48:34.215Z,27
2019-04-22T05:49:23.838Z,27
2019-04-22T05:50:23.854Z,28
2019-04-22T05:51:32.544Z,28
2019-04-22T05:52:22.367Z,28
2019-04-22T05:53:29.984Z,28
2019-04-22T05:54:30.436Z,28
2019-04-22T05:55:30.577Z,28
2019-04-22T05:56:34.227Z,28
2019-04-22T05:57:26.124Z,29
2019-04-22T05:58:31.568Z,29
2019-04-22T06:02:41.757Z,29
2019-04-22T06:03:32.519Z,27
2019-04-22T06:04:19.838Z,27
2019-04-22T06:05:16.899Z,27
2019-04-22T06:07:19.695Z,27
2019-04-22T06:08:24.111Z,30
2019-04-22T06:09:15.336Z,29
2019-04-22T06:10:19.887Z,29
2019-04-22T06:12:23.474Z,29
2019-04-22T06:13:23.306Z,29
2019-04-22T06:14:24.849Z,29
2019-04-22T06:15:20.742Z,33
2019-04-22T06:16:31.143Z,33
2019-04-22T06:18:27.082Z,33
2019-04-22T06:19:18.580Z,33
2019-04-22T06:21:28.116Z,30
2019-04-22T06:22:40.015Z,30
2019-04-22T06:24:27.978Z,30
2019-04-22T06:25:39.507Z,30
2019-04-22T06:26:40.902Z,30
2019-04-22T06:27:31.366Z,32
2019-04-22T06:28:38.424Z,32
2019-04-22T06:29:26.700Z,32
2019-04-22T06:30:29.099Z,32
2019-04-22T06:33:31.974Z,34
2019-04-22T06:34:32.163Z,34
2019-04-22T06:36:30.946Z,34
2019-04-22T06:37:33.950Z,34
2019-04-22T06:40:31.745Z,32
2019-04-22T06:41:27.346Z,32
2019-04-22T06:42:28.755Z,32
2019-04-22T06:46:27.445Z,34
2019-04-22T06:47:28.682Z,34
2019-04-22T06:48:31.752Z,34
2019-04-22T06:50:31.452Z,33
2019-04-22T06:51:27.020Z,34
2019-04-22T06:52:22.621Z,34
2019-04-22T06:54:28.984Z,34
2019-04-22T06:55:23.226Z,34
2019-04-22T06:56:22.382Z,35
2019-04-22T06:57:27.263Z,35
2019-04-22T06:58:28.940Z,35
2019-04-22T06:59:21.646Z,35
2019-04-22T07:00:32.361Z,35
2019-04-22T07:01:31.828Z,35
2019-04-22T07:02:32.071Z,34
2019-04-22T07:04:16.689Z,35
2019-04-22T07:05:28.675Z,35
2019-04-22T07:06:19.685Z,35
2019-04-22T07:07:29.713Z,35
2019-04-22T07:09:03.760Z,35
2019-04-22T07:10:35.156Z,33
2019-04-22T07:11:23.618Z,33
2019-04-22T07:12:17.340Z,33
2019-04-22T07:13:27.870Z,33
2019-04-22T07:14:18.193Z,34
2019-04-22T07:15:43.849Z,35
2019-04-22T07:17:31.320Z,35
2019-04-22T07:18:33.783Z,35
2019-04-22T07:19:31.896Z,35
2019-04-22T07:20:30.373Z,33
2019-04-22T07:21:19.729Z,35
2019-04-22T07:22:30.606Z,35
2019-04-22T07:23:31.954Z,35
2019-04-22T07:24:40.459Z,35
2019-04-22T07:26:23.096Z,37
2019-04-22T07:27:18.908Z,35
2019-04-22T07:28:15.586Z,35
2019-04-22T07:29:25.077Z,35
2019-04-22T07:30:26.487Z,35
2019-04-22T07:31:30.662Z,35
2019-04-22T07:32:51.697Z,36
2019-04-22T07:34:25.366Z,36
2019-04-22T07:35:28.539Z,36
2019-04-22T07:36:49.040Z,36
2019-04-22T07:37:28.198Z,36
2019-04-22T07:38:23.742Z,36
2019-04-22T07:39:15.626Z,35
2019-04-22T07:40:37.307Z,35
2019-04-22T07:41:21.881Z,35
2019-04-22T07:43:40.883Z,35
2019-04-22T07:44:30.948Z,37
2019-04-22T07:45:29.546Z,36
2019-04-22T07:46:28.652Z,36
2019-04-22T07:47:35.864Z,36
2019-04-22T07:48:33.841Z,36
2019-04-22T07:49:33.404Z,36
2019-04-22T07:50:26.729Z,37
2019-04-22T07:51:21.134Z,38
2019-04-22T07:53:21.892Z,38
2019-04-22T07:54:26.453Z,38
2019-04-22T07:55:27.630Z,38
2019-04-22T07:56:21.387Z,38
2019-04-22T07:57:20.240Z,35
2019-04-22T08:00:29.489Z,35
2019-04-22T08:01:26.868Z,35
2019-04-22T08:03:22.690Z,39
2019-04-22T08:06:29.282Z,39
2019-04-22T08:07:29.981Z,39
2019-04-22T08:08:29.062Z,35
2019-04-22T08:09:27.718Z,36
2019-04-22T08:13:20.590Z,36
2019-04-22T08:14:30.792Z,36
2019-04-22T08:15:27.341Z,36
2019-04-22T08:16:23.310Z,36
2019-04-22T08:17:52.121Z,36
2019-04-22T08:18:28.965Z,36
2019-04-22T08:19:28.738Z,36
2019-04-22T08:20:28.981Z,36
2019-04-22T08:21:23.758Z,36
2019-04-22T08:22:32.467Z,36
2019-04-22T08:23:23.750Z,36
2019-04-22T08:24:22.730Z,36
2019-04-22T08:25:25.175Z,36
2019-04-22T08:26:27.542Z,37
2019-04-22T08:27:22.558Z,37
2019-04-22T08:28:30.315Z,37
2019-04-22T08:32:28.029Z,35
2019-04-22T08:33:29.085Z,38
2019-04-22T08:34:23.245Z,38
2019-04-22T08:36:18.405Z,38
2019-04-22T08:38:17.637Z,36
2019-04-22T08:39:25.522Z,36
2019-04-22T08:41:33.168Z,36
2019-04-22T08:42:35.156Z,36
2019-04-22T08:43:38.057Z,36
2019-04-22T08:44:39.759Z,35
2019-04-22T08:45:36.609Z,36
2019-04-22T08:48:30.895Z,36
2019-04-22T08:49:16.143Z,36
2019-04-22T08:50:26.889Z,38
2019-04-22T08:51:24.979Z,36
2019-04-22T08:52:31.871Z,36
2019-04-22T08:56:32.094Z,35
2019-04-22T08:57:40.803Z,37
2019-04-22T08:58:29.502Z,37
2019-04-22T08:59:24.778Z,37
2019-04-22T09:00:34.334Z,37
2019-04-22T09:02:25.956Z,36
2019-04-22T09:03:24.427Z,38
2019-04-22T09:04:16.249Z,38
2019-04-22T09:05:43.534Z,38
2019-04-22T09:06:22.409Z,38
2019-04-22T09:07:28.321Z,38
2019-04-22T09:08:18.871Z,37
2019-04-22T09:09:26.816Z,36
2019-04-22T09:10:32.832Z,36
2019-04-22T09:11:35.288Z,36
2019-04-22T09:12:34.580Z,36
2019-04-22T09:13:30.082Z,36
2019-04-22T09:14:33.980Z,37
2019-04-22T09:15:31.045Z,36
2019-04-22T09:17:28.367Z,36
2019-04-22T09:18:32.997Z,36
2019-04-22T09:19:18.293Z,36
2019-04-22T09:20:30.490Z,35
2019-04-22T09:21:32.652Z,37
2019-04-22T09:22:17.246Z,37
2019-04-22T09:23:33.909Z,37
2019-04-22T09:25:32.722Z,37
2019-04-22T09:26:30.686Z,35
2019-04-22T09:27:36.991Z,35
2019-04-22T09:29:34.367Z,35
2019-04-22T09:30:21.781Z,35
2019-04-22T09:31:23.927Z,35
2019-04-22T09:32:20.279Z,35
2019-04-22T09:33:27.152Z,35
2019-04-22T09:34:27.767Z,35
2019-04-22T09:35:31.881Z,35
2019-04-22T09:36:28.810Z,35
2019-04-22T09:37:36.369Z,35
2019-04-22T09:39:29.428Z,34
2019-04-22T09:40:28.408Z,34
2019-04-22T09:41:27.662Z,34
2019-04-22T09:42:18.755Z,34
2019-04-22T09:43:33.617Z,34
2019-04-22T09:44:33.148Z,34
2019-04-22T09:45:15.156Z,34
2019-04-22T09:46:28.372Z,34
2019-04-22T09:47:30.792Z,34
2019-04-22T09:48:33.650Z,34
2019-04-22T09:49:18.920Z,34
2019-04-22T09:50:29.370Z,35
2019-04-22T09:51:25.373Z,34
2019-04-22T09:52:28.021Z,34
2019-04-22T09:53:29.750Z,34
2019-04-22T09:54:21.726Z,34
2019-04-22T09:55:17.971Z,34
2019-04-22T09:57:24.657Z,34
2019-04-22T09:59:28.582Z,34
2019-04-22T10:00:31.507Z,34
2019-04-22T10:02:26.284Z,34
2019-04-22T10:03:26.010Z,32
2019-04-22T10:04:27.330Z,32
2019-04-22T10:05:28.817Z,32
2019-04-22T10:07:27.136Z,32
2019-04-22T10:08:31.987Z,25
2019-04-22T10:09:40.550Z,32
2019-04-22T10:14:18.978Z,32
2019-04-22T10:15:26.766Z,30
2019-04-22T10:16:35.755Z,30
2019-04-22T10:17:26.184Z,30
2019-04-22T10:20:26.938Z,33
2019-04-22T10:21:35.336Z,32
2019-04-22T10:22:32.331Z,32
2019-04-22T10:23:20.082Z,32
2019-04-22T10:30:41.751Z,19
2019-04-22T10:31:31.078Z,19
2019-04-22T10:32:27.147Z,19
2019-04-22T10:33:23.944Z,19
2019-04-22T10:34:14.159Z,32
2019-04-22T10:35:06.795Z,32
2019-04-22T10:36:01.793Z,32
2019-04-22T10:37:06.416Z,32
2019-04-22T10:38:02.336Z,32
2019-04-22T10:39:02.248Z,32
2019-04-22T10:40:05.693Z,32
2019-04-22T10:41:02.742Z,32
2019-04-22T10:42:02.890Z,32
2019-04-22T10:43:03.171Z,32
2019-04-22T10:44:05.487Z,32
2019-04-22T10:45:01.796Z,32
2019-04-22T10:46:02.107Z,29
2019-04-22T10:47:02.272Z,29
2019-04-22T10:48:01.705Z,29
2019-04-22T10:49:02.031Z,29
2019-04-22T10:50:02.688Z,29
2019-04-22T10:51:02.374Z,29
2019-04-22T10:52:02.691Z,29
2019-04-22T10:53:01.757Z,29
2019-04-22T10:54:01.966Z,29
2019-04-22T10:55:03.390Z,29
2019-04-22T10:56:03.230Z,29
2019-04-22T10:57:03.235Z,29
2019-04-22T10:58:02.396Z,29
2019-04-22T10:59:02.584Z,29
2019-04-22T11:00:04.975Z,29
2019-04-22T11:01:03.276Z,29
2019-04-22T11:02:03.406Z,29
2019-04-22T11:03:02.439Z,29
2019-04-22T11:04:01.573Z,29
2019-04-22T11:05:02.103Z,29
2019-04-22T11:06:03.189Z,29
2019-04-22T11:07:05.445Z,29
2019-04-22T11:08:04.886Z,29
2019-04-22T11:09:04.731Z,29
2019-04-22T11:10:20.493Z,30
2019-04-22T11:11:16.075Z,30
2019-04-22T11:12:06.466Z,30
2019-04-22T11:13:02.937Z,30
2019-04-22T11:14:02.007Z,30
2019-04-22T11:15:03.491Z,30
2019-04-22T11:16:01.446Z,28
2019-04-22T11:17:03.331Z,28
2019-04-22T11:18:02.002Z,28
2019-04-22T11:19:03.485Z,28
2019-04-22T11:20:03.702Z,28
2019-04-22T11:21:01.955Z,28
2019-04-22T11:22:09.671Z,28
2019-04-22T11:23:02.634Z,28
2019-04-22T11:24:02.954Z,28
2019-04-22T11:25:03.590Z,28
2019-04-22T11:26:03.779Z,28
2019-04-22T11:27:03.200Z,28
2019-04-22T11:28:02.254Z,27
2019-04-22T11:29:03.485Z,27
2019-04-22T11:30:03.806Z,27
2019-04-22T11:31:02.664Z,27
2019-04-22T11:32:02.225Z,27
2019-04-22T11:33:02.566Z,27
2019-04-22T11:34:02.750Z,25
2019-04-22T11:35:03.749Z,25
2019-04-22T11:36:02.004Z,25
2019-04-22T11:37:03.158Z,25
2019-04-22T11:38:02.092Z,25
2019-04-22T11:39:05.356Z,25
2019-04-22T11:40:15.110Z,25
2019-04-22T11:41:03.412Z,25
2019-04-22T11:42:02.451Z,25
2019-04-22T11:43:02.201Z,25
2019-04-22T11:44:01.454Z,25
2019-04-22T11:45:03.514Z,25
2019-04-22T11:46:05.533Z,25
2019-04-22T11:47:03.383Z,25
2019-04-22T11:48:03.496Z,25
2019-04-22T11:49:01.423Z,25
2019-04-22T11:50:02.122Z,25
2019-04-22T11:51:02.097Z,25
2019-04-22T11:52:04.784Z,23
2019-04-22T11:53:02.750Z,23
2019-04-22T11:54:02.927Z,23
2019-04-22T11:55:02.062Z,23
2019-04-22T11:56:02.877Z,23
2019-04-22T11:57:03.098Z,23
2019-04-22T11:58:02.982Z,23
2019-04-22T11:59:02.687Z,23
2019-04-22T12:00:04.984Z,23
2019-04-22T12:01:03.055Z,23
2019-04-22T12:02:02.566Z,23
2019-04-22T12:03:03.220Z,23
2019-04-22T12:04:02.338Z,18
2019-04-22T12:05:07.972Z,18
2019-04-22T12:06:02.172Z,18
2019-04-22T12:07:02.189Z,18
2019-04-22T12:08:02.990Z,18
2019-04-22T12:09:03.769Z,18
2019-04-22T12:10:15.314Z,17
2019-04-22T12:11:05.487Z,17
2019-04-22T12:12:03.400Z,17
2019-04-22T12:13:02.183Z,17
2019-04-22T12:14:02.426Z,17
2019-04-22T12:15:01.714Z,17
2019-04-22T12:16:03.202Z,14
2019-04-22T12:17:03.535Z,14
2019-04-22T12:18:03.692Z,14
2019-04-22T12:19:02.960Z,14
2019-04-22T12:20:04.755Z,14
2019-04-22T12:21:03.586Z,14
2019-04-22T12:22:02.884Z,14
2019-04-22T12:23:03.118Z,14
2019-04-22T12:24:01.667Z,14
2019-04-22T12:25:02.034Z,14
2019-04-22T12:26:08.623Z,14
2019-04-22T12:27:02.224Z,14
2019-04-22T12:28:05.351Z,13
2019-04-22T12:29:02.910Z,13
2019-04-22T12:30:03.011Z,13
2019-04-22T12:31:03.687Z,13
2019-04-22T12:32:01.462Z,13
2019-04-22T12:33:02.329Z,13
2019-04-22T12:34:01.913Z,14
2019-04-22T12:35:02.168Z,14
2019-04-22T12:36:02.646Z,14
2019-04-22T12:37:02.653Z,14
2019-04-22T12:38:06.472Z,14
2019-04-22T12:39:03.218Z,14
2019-04-22T12:40:02.674Z,12
2019-04-22T12:41:04.924Z,12
2019-04-22T12:42:02.783Z,12
2019-04-22T12:43:04.642Z,12
2019-04-22T12:44:03.306Z,12
2019-04-22T12:45:02.579Z,12
2019-04-22T12:46:02.429Z,13
2019-04-22T12:47:03.643Z,13
2019-04-22T12:48:02.441Z,13
2019-04-22T12:49:02.383Z,13
2019-04-22T12:50:10.355Z,13
2019-04-22T12:51:02.980Z,13
2019-04-22T12:52:03.092Z,14
2019-04-22T12:53:07.295Z,14
2019-04-22T12:54:01.514Z,14
2019-04-22T12:55:03.787Z,14
2019-04-22T12:56:02.930Z,14
2019-04-22T12:57:01.810Z,14
2019-04-22T12:58:02.822Z,11
2019-04-22T12:59:03.664Z,11
2019-04-22T13:00:05.747Z,11
2019-04-22T13:01:03.292Z,11
2019-04-22T13:02:04.894Z,11
2019-04-22T13:03:01.489Z,11
2019-04-22T13:04:06.924Z,12
2019-04-22T13:05:01.716Z,12
2019-04-22T13:06:01.875Z,12
2019-04-22T13:07:02.153Z,12
2019-04-22T13:08:02.350Z,12
2019-04-22T13:09:02.191Z,12
2019-04-22T13:10:01.632Z,15
2019-04-22T13:11:08.639Z,15
2019-04-22T13:12:03.354Z,15
2019-04-22T13:13:02.790Z,15
2019-04-22T13:14:03.048Z,15
2019-04-22T13:15:04.820Z,15
2019-04-22T13:16:02.765Z,15
2019-04-22T13:17:02.228Z,15
2019-04-22T13:18:12.857Z,15
2019-04-22T13:19:05.631Z,15
2019-04-22T13:20:02.666Z,15
2019-04-22T13:21:02.395Z,15
2019-04-22T13:22:02.908Z,13
2019-04-22T13:23:02.109Z,13
2019-04-22T13:24:02.735Z,13
2019-04-22T13:25:02.147Z,13
2019-04-22T13:26:03.091Z,13
2019-04-22T13:27:01.502Z,13
2019-04-22T13:28:03.020Z,13
2019-04-22T13:29:03.161Z,13
2019-04-22T13:30:05.680Z,13
2019-04-22T13:31:03.731Z,13
2019-04-22T13:32:02.557Z,13
2019-04-22T13:33:02.938Z,13
2019-04-22T13:34:04.046Z,12
2019-04-22T13:37:03.097Z,12
2019-04-22T13:38:01.830Z,12
2019-04-22T13:39:02.982Z,12
2019-04-22T13:40:03.583Z,10
2019-04-22T13:41:17.264Z,10
2019-04-22T13:42:04.021Z,10
2019-04-22T13:43:05.470Z,10
2019-04-22T13:44:02.083Z,10
2019-04-22T13:45:02.394Z,10
2019-04-22T13:46:03.827Z,13
2019-04-22T13:47:14.526Z,13
2019-04-22T13:48:16.809Z,13
2019-04-22T13:49:25.175Z,13
2019-04-22T13:50:32.674Z,13
2019-04-22T13:51:33.966Z,13
2019-04-22T13:52:44.568Z,14
2019-04-22T13:55:32.844Z,14
2019-04-22T13:56:22.262Z,14
2019-04-22T13:57:20.116Z,14
2019-04-22T13:58:14.669Z,11
2019-04-22T13:59:10.233Z,11
2019-04-22T14:00:07.903Z,11
2019-04-22T14:01:02.617Z,11
2019-04-22T14:02:02.270Z,11
2019-04-22T14:03:02.382Z,11
2019-04-22T14:04:02.645Z,13
2019-04-22T14:05:02.451Z,13
2019-04-22T14:06:02.679Z,13
2019-04-22T14:07:02.896Z,13
2019-04-22T14:08:04.291Z,13
2019-04-22T14:09:03.182Z,13
2019-04-22T14:10:02.694Z,14
2019-04-22T14:11:14.867Z,14
2019-04-22T14:12:05.741Z,14
2019-04-22T14:13:02.060Z,14
2019-04-22T14:14:02.876Z,14
2019-04-22T14:15:02.434Z,14
2019-04-22T14:16:01.653Z,17
2019-04-22T14:17:02.965Z,17
2019-04-22T14:18:03.089Z,17
2019-04-22T14:19:02.369Z,17
2019-04-22T14:20:02.611Z,17
2019-04-22T14:21:02.843Z,17
2019-04-22T14:22:02.113Z,15
2019-04-22T14:23:03.122Z,15
2019-04-22T14:24:02.721Z,15
2019-04-22T14:25:02.923Z,15
2019-04-22T14:26:01.603Z,15
2019-04-22T14:27:15.161Z,15
2019-04-22T14:28:06.350Z,18
2019-04-22T14:29:02.200Z,18
2019-04-22T14:30:02.022Z,18
2019-04-22T14:31:02.378Z,18
2019-04-22T14:32:09.256Z,18
2019-04-22T14:33:02.669Z,18
2019-04-22T14:34:05.306Z,17
2019-04-22T14:35:02.986Z,17
2019-04-22T14:36:02.544Z,17
2019-04-22T14:37:01.872Z,17
2019-04-22T14:38:02.022Z,17
2019-04-22T14:39:02.186Z,17
2019-04-22T14:40:07.104Z,18
2019-04-22T14:41:02.541Z,18
2019-04-22T14:42:21.608Z,18
2019-04-22T14:45:04.997Z,18
2019-04-22T14:45:30.675Z,18
2019-04-22T14:46:30.612Z,18
2019-04-22T14:48:19.929Z,18
2019-04-22T14:49:23.948Z,18
2019-04-22T14:50:23.695Z,18
2019-04-22T14:51:21.860Z,18
2019-04-22T14:52:31.430Z,21
2019-04-22T14:53:21.747Z,21
2019-04-22T14:54:21.165Z,21
2019-04-22T14:55:09.087Z,21
2019-04-22T14:56:02.366Z,21
2019-04-22T14:57:01.457Z,21
2019-04-22T14:58:01.616Z,22
2019-04-22T14:59:02.953Z,22
2019-04-22T15:00:02.447Z,22
2019-04-22T15:01:03.217Z,22
2019-04-22T15:02:03.420Z,22
2019-04-22T15:03:03.684Z,22
2019-04-22T15:04:02.831Z,19
2019-04-22T15:05:01.655Z,19
2019-04-22T15:06:02.224Z,19
2019-04-22T15:07:03.089Z,19
2019-04-22T15:08:03.283Z,19
2019-04-22T15:09:01.900Z,19
2019-04-22T15:10:02.072Z,14
2019-04-22T15:11:02.202Z,14
2019-04-22T15:12:10.995Z,14
2019-04-22T15:13:02.962Z,14
2019-04-22T15:14:03.158Z,14
2019-04-22T15:15:01.964Z,14
2019-04-22T15:16:03.222Z,18
2019-04-22T15:17:02.690Z,18
2019-04-22T15:18:02.959Z,18
2019-04-22T15:19:02.071Z,18
2019-04-22T15:20:03.700Z,18
2019-04-22T15:21:02.730Z,18
2019-04-22T15:22:02.988Z,16
2019-04-22T15:23:04.623Z,16
2019-04-22T15:24:02.432Z,16
2019-04-22T15:25:02.963Z,16
2019-04-22T15:26:02.230Z,16
2019-04-22T15:27:02.578Z,16
2019-04-22T15:28:03.690Z,15
2019-04-22T15:29:02.840Z,15
2019-04-22T15:30:03.408Z,15
2019-04-22T15:31:03.486Z,15
2019-04-22T15:32:03.198Z,15
2019-04-22T15:33:01.615Z,15
2019-04-22T15:34:02.666Z,16
2019-04-22T15:35:02.098Z,16
2019-04-22T15:36:03.603Z,16
2019-04-22T15:37:02.349Z,16
2019-04-22T15:38:04.500Z,16
2019-04-22T15:39:02.966Z,16
2019-04-22T15:40:02.887Z,15
2019-04-22T15:41:02.830Z,15
2019-04-22T15:42:11.551Z,15
2019-04-22T15:43:02.647Z,15
2019-04-22T15:44:03.618Z,15
2019-04-22T15:45:02.599Z,15
2019-04-22T15:46:03.865Z,16
2019-04-22T15:47:02.804Z,16
2019-04-22T15:48:02.231Z,16
2019-04-22T15:49:02.130Z,16
2019-04-22T15:50:01.719Z,16
2019-04-22T15:51:02.866Z,16
2019-04-22T15:52:04.632Z,136
2019-04-22T15:53:02.997Z,136
2019-04-22T15:54:03.482Z,136
2019-04-22T15:55:02.979Z,136
2019-04-22T15:56:02.892Z,136
2019-04-22T15:57:02.496Z,136
2019-04-22T15:58:02.022Z,22
2019-04-22T15:59:09.880Z,22
2019-04-22T16:00:18.252Z,22
2019-04-22T16:01:10.884Z,22
2019-04-22T16:02:02.634Z,22
2019-04-22T16:03:04.895Z,22
2019-04-22T16:04:02.821Z,30
2019-04-22T16:05:02.708Z,30
2019-04-22T16:06:02.283Z,30
2019-04-22T16:07:03.159Z,30
2019-04-22T16:08:03.239Z,30
2019-04-22T16:09:02.687Z,30
2019-04-22T16:10:03.829Z,30
2019-04-22T16:11:02.067Z,30
2019-04-22T16:12:15.173Z,30
2019-04-22T16:13:10.581Z,30
2019-04-22T16:14:02.192Z,30
2019-04-22T16:15:03.279Z,30
2019-04-22T16:16:02.704Z,36
2019-04-22T16:17:01.833Z,36
2019-04-22T16:18:04.841Z,36
2019-04-22T16:19:02.579Z,36
2019-04-22T16:20:03.287Z,36
2019-04-22T16:21:02.886Z,36
2019-04-22T16:22:07.698Z,31
2019-04-22T16:23:03.486Z,31
2019-04-22T16:24:02.574Z,31
2019-04-22T16:25:02.384Z,31
2019-04-22T16:26:03.301Z,31
2019-04-22T16:27:02.483Z,31
2019-04-22T16:28:02.968Z,10
2019-04-22T16:29:03.201Z,10
2019-04-22T16:30:03.426Z,10
2019-04-22T16:31:03.836Z,10
2019-04-22T16:32:03.030Z,10
2019-04-22T16:33:01.787Z,10
2019-04-22T16:34:02.663Z,12
2019-04-22T16:35:02.291Z,12
2019-04-22T16:36:02.682Z,12
2019-04-22T16:37:02.873Z,12
2019-04-22T16:38:01.865Z,12
2019-04-22T16:39:02.753Z,12
2019-04-22T16:40:03.031Z,13
2019-04-22T16:41:02.915Z,13